Time;durP1;ratioP1;P1;durP2;ratioP2;P2;SDS_P1;SDS_P2;PMS_P1;PMS_P2;Temp;Humidity;BMP_temperature;BMP_pressure;BME280_temperature;BME280_humidity;BME280_pressure;Samples;Min_cycle;Max_cycle;Signal;HPM_P1;HPM_P2
2022/03/30 00:00:14;;;;;;;69.07;14.55;;;;;;;12.66;50.24;95125.75;5109618;28;20043;-74
2022/03/30 00:02:41;;;;;;;42.47;12.68;;;;;;;12.71;49.84;95133.66;5109645;28;20058;-74
2022/03/30 00:05:10;;;;;;;65.03;14.00;;;;;;;12.69;49.48;95127.00;5109351;28;20051;-74
2022/03/30 00:07:36;;;;;;;38.90;12.88;;;;;;;12.65;49.30;95121.44;5109986;28;20051;-74
2022/03/30 00:10:05;;;;;;;56.45;13.60;;;;;;;12.64;49.20;95116.34;5109216;28;20055;-75
2022/03/30 00:12:33;;;;;;;44.90;11.68;;;;;;;12.65;49.19;95118.72;5110451;27;20054;-75
2022/03/30 00:15:00;;;;;;;53.03;13.43;;;;;;;12.68;49.08;95117.97;5108658;28;20047;-74
2022/03/30 00:17:26;;;;;;;48.88;12.32;;;;;;;12.71;49.45;95122.72;5109368;28;20060;-75
2022/03/30 00:19:53;;;;;;;43.17;12.27;;;;;;;12.74;48.89;95121.22;5108771;28;20051;-75
2022/03/30 00:22:21;;;;;;;55.22;12.90;;;;;;;12.75;48.86;95123.59;5108637;28;20048;-74
2022/03/30 00:24:47;;;;;;;49.00;12.18;;;;;;;12.77;48.59;95115.81;5109093;28;20589;-74
2022/03/30 00:27:14;;;;;;;60.47;13.55;;;;;;;12.78;48.85;95111.13;5108808;28;20587;-74
2022/03/30 00:29:40;;;;;;;49.58;12.82;;;;;;;12.79;48.51;95110.00;5109333;28;20047;-75
2022/03/30 00:32:07;;;;;;;57.63;12.85;;;;;;;12.79;48.65;95107.28;5108715;28;20055;-75
2022/03/30 00:34:34;;;;;;;51.65;12.57;;;;;;;12.79;48.72;95102.59;5109556;28;20071;-74
2022/03/30 00:37:01;;;;;;;55.95;12.65;;;;;;;12.80;48.45;95104.19;5108392;28;20052;-77
2022/03/30 00:39:29;;;;;;;73.55;14.77;;;;;;;12.79;48.85;95097.13;5109341;28;20058;-75
2022/03/30 00:41:55;;;;;;;72.95;12.68;;;;;;;12.78;48.94;95095.53;5107978;28;20058;-75
2022/03/30 00:44:22;;;;;;;55.85;12.48;;;;;;;12.78;49.06;95101.00;5088636;28;20058;-74
2022/03/30 00:46:48;;;;;;;59.88;11.75;;;;;;;12.79;48.98;95096.34;5087855;28;20059;-74
2022/03/30 00:49:15;;;;;;;72.28;12.18;;;;;;;12.78;48.90;95095.53;5088220;28;20080;-74
2022/03/30 00:51:42;;;;;;;68.43;12.77;;;;;;;12.73;49.10;95086.84;5088065;28;20051;-75
2022/03/30 00:54:08;;;;;;;50.40;12.82;;;;;;;12.70;49.25;95077.44;5087667;28;20135;-74
2022/03/30 00:56:37;;;;;;;61.03;13.15;;;;;;;12.70;49.29;95077.44;5087921;28;20052;-74
2022/03/30 00:59:05;;;;;;;70.75;13.18;;;;;;;12.71;49.23;95081.75;5087350;28;20788;-75
2022/03/30 01:01:33;;;;;;;50.38;12.95;;;;;;;12.68;49.69;95079.75;5088393;28;20128;-74
2022/03/30 01:04:02;;;;;;;55.80;12.68;;;;;;;12.67;49.48;95078.16;5087536;28;20051;-74
2022/03/30 01:06:29;;;;;;;58.95;13.77;;;;;;;12.68;49.53;95073.50;5088424;28;20047;-75
2022/03/30 01:08:55;;;;;;;44.47;11.95;;;;;;;12.65;49.55;95072.28;5087695;28;20216;-73
2022/03/30 01:11:23;;;;;;;56.25;14.02;;;;;;;12.62;49.78;95069.47;5088044;28;20113;-74
2022/03/30 01:13:51;;;;;;;50.90;13.15;;;;;;;12.58;49.56;95068.63;5105436;27;20139;-74
2022/03/30 01:16:17;;;;;;;51.15;12.77;;;;;;;12.55;49.87;95067.41;5107655;28;20052;-77
2022/03/30 01:18:44;;;;;;;49.95;12.70;;;;;;;12.54;50.24;95069.34;5108418;28;20043;-74
2022/03/30 01:21:12;;;;;;;55.38;13.57;;;;;;;12.53;49.97;95061.53;5107428;28;20051;-74
2022/03/30 01:23:38;;;;;;;46.05;12.30;;;;;;;12.48;49.88;95065.34;5108684;28;20105;-74
2022/03/30 01:26:05;;;;;;;57.30;14.48;;;;;;;12.41;50.23;95057.00;5107204;28;20047;-75
2022/03/30 01:28:33;;;;;;;49.80;13.13;;;;;;;12.35;50.29;95054.94;5109006;28;20047;-74
2022/03/30 01:33:44;;;;;;;52.30;12.80;;;;;;;12.13;51.51;95049.06;5107398;28;20077;-75
2022/03/30 01:36:12;;;;;;;50.78;13.88;;;;;;;12.00;52.57;95039.41;5107411;28;20134;-75
2022/03/30 01:38:39;;;;;;;52.65;13.10;;;;;;;11.74;53.52;95038.13;5108378;28;20055;-74
2022/03/30 01:41:07;;;;;;;52.47;13.80;;;;;;;11.39;55.14;95031.88;5107721;28;20052;-75
2022/03/30 01:43:33;;;;;;;57.15;15.07;;;;;;;11.17;56.94;95030.56;5107533;28;20081;-75
2022/03/30 01:46:00;;;;;;;55.13;13.80;;;;;;;10.98;58.54;95023.91;5108452;28;20052;-74
2022/03/30 01:48:26;;;;;;;59.38;14.55;;;;;;;10.74;59.39;95032.25;5107139;28;20059;-75
2022/03/30 01:50:53;;;;;;;51.35;13.75;;;;;;;10.62;59.03;95016.81;5108266;28;20058;-74
2022/03/30 01:53:21;;;;;;;53.35;13.30;;;;;;;10.51;59.74;95010.31;5106681;28;20146;-74
2022/03/30 01:55:47;;;;;;;66.75;14.55;;;;;;;10.38;60.36;95000.63;5108067;28;20058;-76
2022/03/30 01:58:15;;;;;;;63.28;14.63;;;;;;;10.29;60.25;95000.81;5107262;28;20051;-74
2022/03/30 02:00:41;;;;;;;62.70;14.00;;;;;;;10.29;59.05;95014.41;5107983;28;20055;-75
2022/03/30 02:03:08;;;;;;;48.08;12.73;;;;;;;10.19;59.78;94993.91;5107383;28;20043;-74
2022/03/30 02:05:34;;;;;;;68.25;14.40;;;;;;;10.23;59.43;94996.69;5107136;28;20705;-74
2022/03/30 02:08:01;;;;;;;54.95;12.95;;;;;;;10.23;58.29;94993.19;5108040;28;20051;-74
2022/03/30 02:10:29;;;;;;;51.58;12.88;;;;;;;10.23;58.89;94990.47;5106631;28;20180;-74
2022/03/30 02:12:56;;;;;;;48.17;12.15;;;;;;;10.26;58.50;94997.97;5108123;28;20057;-74
2022/03/30 02:15:22;;;;;;;64.00;13.30;;;;;;;10.27;58.38;94994.13;5106460;28;20587;-77
2022/03/30 02:17:49;;;;;;;58.30;12.65;;;;;;;10.24;59.30;94978.50;5107600;28;20096;-74
2022/03/30 02:20:16;;;;;;;56.17;12.73;;;;;;;10.11;60.62;94978.53;5106127;28;20096;-74
2022/03/30 02:22:42;;;;;;;52.85;12.63;;;;;;;9.95;61.85;94961.38;5107427;28;20059;-74
2022/03/30 02:25:10;;;;;;;57.42;14.30;;;;;;;9.79;61.64;94963.28;5106553;28;20406;-74
2022/03/30 02:27:38;;;;;;;56.40;12.50;;;;;;;9.64;62.47;94954.72;5107520;28;20520;-74
2022/03/30 02:30:06;;;;;;;61.47;12.13;;;;;;;9.61;62.63;94958.16;5106987;28;20125;-74
2022/03/30 02:32:32;;;;;;;69.65;12.90;;;;;;;9.62;62.70;94956.22;5106724;28;20642;-75
2022/03/30 02:34:59;;;;;;;59.80;11.90;;;;;;;9.57;63.22;94957.25;5107699;28;20051;-74
2022/03/30 02:37:25;;;;;;;69.72;12.52;;;;;;;9.54;63.32;94949.00;5105877;28;20605;-74
2022/03/30 02:39:52;;;;;;;58.25;11.45;;;;;;;9.56;63.23;94944.00;5107157;28;20074;-74
2022/03/30 02:42:18;;;;;;;55.85;11.63;;;;;;;9.53;63.33;94945.47;5106345;28;20043;-74
2022/03/30 02:44:46;;;;;;;63.45;12.52;;;;;;;9.56;63.52;94944.81;5107003;28;20056;-74
2022/03/30 02:47:13;;;;;;;53.35;11.35;;;;;;;9.60;61.62;94939.44;5105859;28;20434;-75
2022/03/30 02:49:39;;;;;;;65.57;12.80;;;;;;;9.61;61.66;94941.84;5106982;28;20124;-75
2022/03/30 02:52:07;;;;;;;61.10;11.45;;;;;;;9.62;61.73;94948.84;5106308;28;20044;-75
2022/03/30 02:54:33;;;;;;;59.42;11.95;;;;;;;9.65;61.13;94944.63;5106557;28;20055;-77
2022/03/30 02:57:01;;;;;;;54.05;11.02;;;;;;;9.72;60.78;94930.47;5106824;28;20047;-75
2022/03/30 02:59:28;;;;;;;69.35;12.52;;;;;;;9.78;60.42;94923.66;5106032;28;20490;-75
2022/03/30 03:01:58;;;;;;;62.80;12.30;;;;;;;9.85;60.11;94923.81;5107192;28;20048;-75
2022/03/30 03:04:24;;;;;;;51.30;11.07;;;;;;;9.87;59.88;94908.75;5105997;28;20109;-77
2022/03/30 03:06:51;;;;;;;68.30;12.38;;;;;;;9.96;59.38;94913.22;5107209;28;20062;-74
2022/03/30 03:09:18;;;;;;;54.25;10.80;;;;;;;9.99;58.51;94905.19;5105709;28;20044;-74
2022/03/30 03:11:44;;;;;;;57.88;11.00;;;;;;;10.09;58.91;94901.94;5106970;28;20185;-75
2022/03/30 03:14:11;;;;;;;65.30;10.95;;;;;;;10.14;58.75;94898.97;5106717;28;20051;-75
2022/03/30 03:16:37;;;;;;;66.18;11.48;;;;;;;10.22;58.23;94899.13;5106115;28;20051;-74
2022/03/30 03:19:05;;;;;;;55.83;10.43;;;;;;;10.28;58.29;94898.53;5106177;28;20863;-74
2022/03/30 03:21:32;;;;;;;77.00;12.27;;;;;;;10.34;57.71;94896.38;5105967;28;20051;-74
2022/03/30 03:23:58;;;;;;;46.35;10.05;;;;;;;10.39;57.33;94898.81;5107116;28;20054;-74
2022/03/30 03:26:25;;;;;;;70.47;10.55;;;;;;;10.44;57.48;94901.28;5105446;28;20051;-74
2022/03/30 03:28:51;;;;;;;64.60;12.00;;;;;;;10.48;57.26;94899.41;5107115;28;20048;-75
2022/03/30 03:31:18;;;;;;;68.72;11.60;;;;;;;10.48;56.91;94901.34;5105490;28;20059;-77
2022/03/30 03:33:45;;;;;;;73.03;12.73;;;;;;;10.57;57.11;94894.56;5106546;28;20059;-73
2022/03/30 03:36:12;;;;;;;55.88;11.07;;;;;;;10.66;56.28;94895.19;5105276;28;20051;-74
2022/03/30 03:38:39;;;;;;;80.60;12.68;;;;;;;10.64;55.65;94893.94;5106538;28;20047;-74
2022/03/30 03:41:06;;;;;;;63.13;11.73;;;;;;;10.70;55.98;94892.53;5103310;28;20094;-74
2022/03/30 03:43:33;;;;;;;64.13;12.73;;;;;;;10.77;55.56;94878.31;5106480;28;20075;-74
2022/03/30 03:45:59;;;;;;;58.53;11.40;;;;;;;10.78;54.61;94877.16;5106698;28;20052;-74
2022/03/30 03:48:26;;;;;;;63.42;11.20;;;;;;;10.80;54.81;94875.66;5105259;28;20134;-74
2022/03/30 03:50:53;;;;;;;63.05;11.30;;;;;;;10.76;54.06;94879.47;5106854;28;20075;-74
2022/03/30 03:53:20;;;;;;;73.35;12.68;;;;;;;10.77;54.24;94875.59;5105249;28;20071;-76
2022/03/30 03:55:47;;;;;;;89.47;13.15;;;;;;;10.74;53.93;94865.41;5106498;28;20100;-75
2022/03/30 03:58:14;;;;;;;56.00;11.75;;;;;;;10.80;54.14;94864.75;5108735;28;20065;-74
2022/03/30 04:00:40;;;;;;;64.32;11.52;;;;;;;10.82;53.90;94867.16;5110244;28;20047;-74
2022/03/30 04:03:07;;;;;;;49.65;11.70;;;;;;;10.85;54.01;94866.41;5109733;28;20052;-74
2022/03/30 04:05:33;;;;;;;80.25;12.77;;;;;;;10.88;53.94;94854.81;5110034;28;20059;-75
2022/03/30 04:08:00;;;;;;;51.50;11.68;;;;;;;10.90;53.50;94852.53;5109844;28;20761;-75
2022/03/30 04:10:28;;;;;;;77.45;12.68;;;;;;;10.95;53.62;94854.97;5109160;27;20508;-74
2022/03/30 04:12:54;;;;;;;58.92;11.55;;;;;;;10.97;53.16;94856.19;5130715;27;20051;-74
2022/03/30 04:15:21;;;;;;;64.93;11.13;;;;;;;10.97;53.39;94858.13;5129250;27;20495;-75
2022/03/30 04:17:48;;;;;;;53.15;10.40;;;;;;;10.96;53.17;94856.53;5130723;27;20701;-75
2022/03/30 04:20:15;;;;;;;63.88;11.70;;;;;;;10.96;52.94;94853.81;5129326;27;20058;-75
2022/03/30 04:22:42;;;;;;;74.32;12.75;;;;;;;10.96;53.11;94848.38;5130417;27;20061;-74
2022/03/30 04:25:09;;;;;;;72.93;10.95;;;;;;;10.95;53.29;94850.31;5129342;27;20460;-75
2022/03/30 04:27:45;;;;;;;76.07;12.27;;;;;;;10.96;53.31;94846.47;5129815;27;20528;-74
2022/03/30 04:30:12;;;;;;;67.53;11.85;;;;;;;11.00;52.55;94843.00;5129404;27;20133;-74
2022/03/30 04:32:39;;;;;;;64.75;12.02;;;;;;;10.98;52.82;94843.38;5129196;27;20453;-75
2022/03/30 04:35:06;;;;;;;61.30;11.43;;;;;;;10.94;52.13;94842.50;5129758;27;20051;-74
2022/03/30 04:37:33;;;;;;;61.67;11.95;;;;;;;10.94;52.52;94842.50;5129981;27;20050;-76
2022/03/30 04:39:59;;;;;;;66.30;11.38;;;;;;;10.97;52.35;94848.03;5130416;27;20051;-76
2022/03/30 04:42:26;;;;;;;57.70;12.20;;;;;;;10.97;52.14;94841.81;5109118;27;20048;-75
2022/03/30 04:44:53;;;;;;;76.38;11.70;;;;;;;10.98;52.27;94837.94;5109734;28;20043;-74
2022/03/30 04:47:20;;;;;;;67.00;11.13;;;;;;;10.98;51.84;94838.72;5108367;28;20059;-75
2022/03/30 04:49:46;;;;;;;66.35;10.52;;;;;;;10.98;51.91;94829.75;5109008;28;20051;-74
2022/03/30 04:52:13;;;;;;;67.53;10.82;;;;;;;10.98;51.95;94837.94;5108233;28;20047;-76
2022/03/30 04:54:39;;;;;;;74.57;11.60;;;;;;;10.97;51.25;94833.63;5108743;28;20051;-77
2022/03/30 04:57:06;;;;;;;58.15;11.02;;;;;;;10.95;51.28;94841.34;5108804;28;20047;-76
2022/03/30 04:59:32;;;;;;;49.20;10.43;;;;;;;10.93;51.65;94838.19;5108674;28;20051;-75
2022/03/30 05:02:00;;;;;;;46.45;10.57;;;;;;;10.95;51.69;94850.31;5109060;28;20051;-74
2022/03/30 05:04:29;;;;;;;50.45;11.10;;;;;;;10.70;51.76;94838.09;5107905;28;20048;-75
2022/03/30 05:06:55;;;;;;;53.58;11.02;;;;;;;10.66;52.22;94843.47;5108948;28;20051;-76
2022/03/30 05:09:22;;;;;;;57.45;11.32;;;;;;;10.70;51.76;94838.91;5107812;28;20055;-74
2022/03/30 05:11:49;;;;;;;61.00;11.80;;;;;;;10.56;51.83;94838.56;5108760;27;20048;-75
2022/03/30 05:14:16;;;;;;;60.97;11.05;;;;;;;10.62;52.02;94837.16;5108209;28;20044;-75
2022/03/30 05:16:42;;;;;;;65.78;12.13;;;;;;;10.69;51.67;94836.50;5108271;28;20050;-74
2022/03/30 05:19:10;;;;;;;67.40;12.00;;;;;;;10.76;51.22;94838.63;5108001;28;20048;-74
2022/03/30 05:21:37;;;;;;;54.63;10.57;;;;;;;10.69;51.23;94837.28;5108373;28;20130;-74
2022/03/30 05:24:03;;;;;;;70.90;12.02;;;;;;;10.56;51.55;94843.22;5108493;28;20112;-75
2022/03/30 05:26:30;;;;;;;55.83;11.20;;;;;;;10.64;51.34;94829.41;5107793;28;20687;-74
2022/03/30 05:28:56;;;;;;;52.78;10.93;;;;;;;10.71;51.03;94837.75;5108996;28;20058;-74
2022/03/30 05:31:23;;;;;;;47.35;10.52;;;;;;;10.77;51.06;94837.47;5107497;28;20126;-73
2022/03/30 05:33:49;;;;;;;60.53;12.32;;;;;;;10.81;50.78;94838.34;5108656;28;20047;-74
2022/03/30 05:36:18;;;;;;;67.93;11.68;;;;;;;10.84;50.43;94843.84;5107618;28;20058;-73
2022/03/30 05:38:44;;;;;;;56.85;11.00;;;;;;;10.90;51.11;94847.06;5108629;28;20109;-72
2022/03/30 05:41:11;;;;;;;48.45;10.52;;;;;;;10.84;50.63;94848.50;5107766;28;20661;-72
2022/03/30 05:43:37;;;;;;;51.63;11.80;;;;;;;10.86;50.69;94847.03;5108396;28;20059;-72
2022/03/30 05:46:04;;;;;;;51.08;10.95;;;;;;;10.92;50.40;94834.69;5107579;28;20047;-73
2022/03/30 05:48:30;;;;;;;59.00;11.65;;;;;;;11.00;49.81;94838.34;5107664;28;20055;-72
2022/03/30 05:50:57;;;;;;;54.22;11.05;;;;;;;11.07;49.81;94835.78;5108779;28;20051;-72
2022/03/30 05:53:25;;;;;;;57.40;11.18;;;;;;;11.13;49.53;94839.00;5107296;28;20486;-72
2022/03/30 05:55:52;;;;;;;56.70;11.30;;;;;;;11.19;49.01;94843.81;5108177;28;20640;-73
2022/03/30 05:58:18;;;;;;;60.88;12.07;;;;;;;11.06;49.05;94850.53;5107246;28;20054;-73
2022/03/30 06:00:45;;;;;;;65.28;11.10;;;;;;;11.09;49.41;94855.28;5107748;28;20059;-73
2022/03/30 06:03:11;;;;;;;51.45;10.55;;;;;;;11.13;49.83;94839.81;5107552;28;20055;-73
2022/03/30 06:05:39;;;;;;;75.43;12.32;;;;;;;11.22;49.11;94840.38;5107587;28;20051;-73
2022/03/30 06:08:06;;;;;;;49.60;10.10;;;;;;;11.32;48.59;94849.09;5107582;28;20062;-73
2022/03/30 06:10:34;;;;;;;55.28;11.90;;;;;;;11.13;48.63;94844.47;5107527;28;20051;-72
2022/03/30 06:13:01;;;;;;;45.10;9.68;;;;;;;11.13;48.57;94858.09;5108531;28;20651;-73
2022/03/30 06:15:28;;;;;;;57.65;10.50;;;;;;;11.30;48.67;94854.91;5106552;27;20521;-72
2022/03/30 06:17:56;;;;;;;44.17;9.15;;;;;;;11.28;49.16;94851.00;5108234;27;20403;-72
2022/03/30 06:20:24;;;;;;;51.75;10.45;;;;;;;11.20;49.28;94850.84;5106347;27;20039;-72
2022/03/30 06:22:51;;;;;;;65.25;11.27;;;;;;;11.26;49.54;94854.06;5108198;27;20047;-72
2022/03/30 06:25:20;;;;;;;47.75;9.98;;;;;;;11.05;50.66;94850.91;5107199;27;20036;-72
2022/03/30 06:27:48;;;;;;;71.30;11.52;;;;;;;11.23;50.31;94854.78;5107238;28;20050;-74
2022/03/30 06:30:15;;;;;;;47.80;10.68;;;;;;;11.24;49.86;94851.69;5107536;28;20047;-74
2022/03/30 06:32:41;;;;;;;71.60;11.25;;;;;;;11.38;49.96;94853.13;5107241;28;20051;-74
2022/03/30 06:35:09;;;;;;;58.95;10.98;;;;;;;11.46;49.73;94846.66;5107555;28;20044;-73
2022/03/30 06:37:35;;;;;;;62.97;12.23;;;;;;;11.52;49.30;94850.69;5106748;28;20047;-74
2022/03/30 06:40:01;;;;;;;55.92;11.38;;;;;;;11.46;49.08;94843.94;5107372;28;20047;-73
2022/03/30 06:42:28;;;;;;;61.22;11.38;;;;;;;11.44;49.18;94848.97;5124330;27;20051;-74
2022/03/30 06:44:56;;;;;;;67.00;12.73;;;;;;;11.57;48.81;94846.88;5128520;27;20066;-74
2022/03/30 06:47:23;;;;;;;54.45;10.90;;;;;;;11.67;49.47;94851.75;5126923;27;20133;-74
2022/03/30 06:49:49;;;;;;;63.67;12.35;;;;;;;11.75;48.51;94843.34;5127909;27;20054;-74
2022/03/30 06:52:16;;;;;;;50.28;11.38;;;;;;;11.72;49.02;94846.78;5127340;27;20051;-74
2022/03/30 06:54:42;;;;;;;66.38;11.90;;;;;;;11.66;49.21;94848.22;5127863;27;20059;-74
2022/03/30 06:57:09;;;;;;;56.88;10.88;;;;;;;11.66;49.00;94844.72;5127197;27;20051;-74
2022/03/30 06:59:35;;;;;;;63.75;12.38;;;;;;;11.75;48.99;94845.28;5127225;27;20062;-73
2022/03/30 07:02:04;;;;;;;59.25;11.38;;;;;;;11.82;48.39;94847.38;5127682;27;20055;-74
2022/03/30 07:04:31;;;;;;;49.80;10.88;;;;;;;11.66;48.72;94845.50;5127059;27;20055;-73
2022/03/30 07:12:26;;;;;;;53.00;10.57;;;;;;;11.63;49.00;94842.69;5125271;27;20069;-73
2022/03/30 07:14:53;;;;;;;41.72;8.82;;;;;;;11.86;49.33;94850.97;5127994;27;20628;-73
2022/03/30 07:17:21;;;;;;;69.78;11.50;;;;;;;11.79;48.88;94848.06;5126242;27;20503;-73
2022/03/30 07:19:47;;;;;;;54.40;10.10;;;;;;;11.82;49.49;94847.38;5128071;27;20049;-73
2022/03/30 07:22:14;;;;;;;52.17;11.77;;;;;;;11.77;49.10;94846.47;5126863;27;20051;-73
2022/03/30 07:24:41;;;;;;;48.33;8.85;;;;;;;11.89;49.46;94848.28;5127965;27;20150;-73
2022/03/30 07:27:08;;;;;;;53.10;9.18;;;;;;;11.93;49.13;94848.34;5126159;27;20135;-73
2022/03/30 07:29:34;;;;;;;68.35;10.32;;;;;;;12.03;49.37;94853.19;5127935;27;20047;-73
2022/03/30 07:32:02;;;;;;;45.40;8.70;;;;;;;12.00;49.32;94853.91;5130924;27;20777;-73
2022/03/30 07:34:30;;;;;;;68.03;10.40;;;;;;;12.02;50.81;94851.63;5131226;27;20059;-73
2022/03/30 07:36:57;;;;;;;77.00;11.20;;;;;;;12.22;50.69;94844.16;5131315;27;20054;-73
2022/03/30 07:39:24;;;;;;;67.60;8.82;;;;;;;12.22;50.59;94844.16;5130617;27;20051;-73
2022/03/30 07:41:50;;;;;;;88.05;13.95;;;;;;;12.35;49.63;94855.66;5116909;27;20048;-74
2022/03/30 07:44:17;;;;;;;57.95;10.25;;;;;;;12.47;50.66;94855.47;5109658;27;20705;-76
2022/03/30 07:46:44;;;;;;;69.18;10.35;;;;;;;12.56;50.56;94858.72;5110504;27;20047;-76
2022/03/30 07:49:11;;;;;;;88.93;16.83;;;;;;;12.69;50.27;94851.94;5109249;27;20051;-77
2022/03/30 07:51:39;;;;;;;94.18;12.57;;;;;;;12.77;50.49;94850.84;5110741;27;20043;-76
2022/03/30 07:54:05;;;;;;;63.97;8.68;;;;;;;12.63;50.42;94853.38;5109109;27;20055;-72
2022/03/30 07:56:32;;;;;;;81.70;12.73;;;;;;;12.24;51.16;94848.09;5110185;27;20055;-72
2022/03/30 07:59:00;;;;;;;62.88;9.40;;;;;;;12.31;52.20;94846.63;5110159;27;20461;-74
2022/03/30 08:01:26;;;;;;;100.65;13.05;;;;;;;12.21;52.76;94846.09;5109376;27;20055;-76
2022/03/30 08:03:53;;;;;;;94.35;24.45;;;;;;;12.14;53.23;94851.44;5110721;27;20056;-72
2022/03/30 08:06:19;;;;;;;86.95;10.48;;;;;;;12.21;53.27;94848.81;5109028;27;20047;-73
2022/03/30 08:08:47;;;;;;;61.40;8.82;;;;;;;12.31;53.17;94854.81;5110992;27;20044;-73
2022/03/30 08:11:13;;;;;;;53.25;8.05;;;;;;;12.32;53.63;94853.66;5109261;27;20494;-73
2022/03/30 08:13:40;;;;;;;57.85;9.63;;;;;;;12.36;53.45;94849.06;5111217;27;20130;-73
2022/03/30 08:16:06;;;;;;;63.08;9.50;;;;;;;12.28;53.78;94854.41;5109286;27;20058;-73
2022/03/30 08:18:33;;;;;;;56.53;8.93;;;;;;;12.34;53.94;94856.84;5110337;27;20047;-73
2022/03/30 08:23:44;;;;;;;71.30;9.02;;;;;;;12.38;52.83;94855.75;5109495;27;20059;-72
2022/03/30 08:26:11;;;;;;;57.85;9.00;;;;;;;12.49;53.08;94848.50;5109875;27;20046;-73
2022/03/30 08:28:38;;;;;;;51.88;9.48;;;;;;;12.47;52.40;94850.00;5109128;27;20051;-73
2022/03/30 08:31:05;;;;;;;65.22;9.93;;;;;;;12.63;52.94;94844.41;5109814;27;20047;-73
2022/03/30 08:33:31;;;;;;;44.25;7.32;;;;;;;12.66;52.68;94852.66;5109328;27;20051;-73
2022/03/30 08:35:57;;;;;;;60.45;8.70;;;;;;;12.78;53.04;94854.38;5109795;27;20052;-73
2022/03/30 08:38:24;;;;;;;62.30;9.55;;;;;;;12.72;52.75;94848.44;5108661;27;20054;-73
2022/03/30 08:40:56;;;;;;;64.88;8.82;;;;;;;12.79;53.33;94850.50;5109433;27;20075;-74
2022/03/30 08:43:24;;;;;;;45.92;8.13;;;;;;;12.87;53.07;94846.72;5108367;27;20055;-73
2022/03/30 08:45:50;;;;;;;66.40;9.65;;;;;;;12.89;53.39;94844.38;5109509;27;20047;-73
2022/03/30 08:48:17;;;;;;;58.65;8.65;;;;;;;12.82;53.24;94855.22;5109267;27;20081;-73
2022/03/30 08:50:44;;;;;;;65.30;8.80;;;;;;;12.75;53.06;94839.53;5108921;27;20048;-74
2022/03/30 08:53:14;;;;;;;53.08;7.32;;;;;;;12.71;52.64;94844.13;5109265;27;20063;-73
2022/03/30 08:55:40;;;;;;;58.88;7.80;;;;;;;12.74;52.80;94848.09;5108548;27;20055;-72
2022/03/30 08:58:07;;;;;;;56.28;7.53;;;;;;;12.67;53.39;94842.50;5108730;27;20149;-73
2022/03/30 09:00:35;;;;;;;59.10;7.00;;;;;;;12.63;53.85;94841.66;5108929;27;20054;-73
2022/03/30 09:03:03;;;;;;;63.88;8.38;;;;;;;12.58;54.13;94840.06;5109263;27;20510;-73
2022/03/30 09:05:32;;;;;;;56.38;8.15;;;;;;;12.52;53.52;94842.28;5109125;27;20052;-73
2022/03/30 09:08:09;;;;;;;64.78;7.97;;;;;;;12.48;54.11;94836.00;5108929;27;20057;-72
2022/03/30 09:10:36;;;;;;;48.40;7.75;;;;;;;12.58;54.30;94840.06;5109374;28;20055;-73
2022/03/30 09:13:04;;;;;;;55.58;8.52;;;;;;;12.45;54.53;94838.69;5107860;28;20100;-72
2022/03/30 09:15:33;;;;;;;57.13;8.45;;;;;;;12.50;54.74;94838.38;5109498;28;20070;-73
2022/03/30 09:18:03;;;;;;;52.47;7.60;;;;;;;12.50;54.74;94839.16;5108385;28;20043;-73
2022/03/30 09:20:31;;;;;;;56.72;7.50;;;;;;;12.43;55.55;94832.81;5108619;28;20043;-73
2022/03/30 09:23:00;;;;;;;48.22;7.60;;;;;;;12.49;56.25;94848.50;5108471;28;20131;-73
2022/03/30 09:25:27;;;;;;;57.25;8.20;;;;;;;12.27;57.17;94836.47;5108183;28;20736;-73
2022/03/30 09:27:56;;;;;;;49.13;7.90;;;;;;;12.04;58.85;94837.63;5108457;28;20055;-73
2022/03/30 09:30:24;;;;;;;56.03;8.43;;;;;;;11.96;58.46;94844.91;5107709;28;20074;-71
2022/03/30 09:32:52;;;;;;;52.35;7.88;;;;;;;11.57;59.03;94842.19;5109193;28;20042;-73
2022/03/30 09:35:25;;;;;;;67.03;9.20;;;;;;;11.57;59.89;94844.94;5107162;28;20138;-73
2022/03/30 09:38:03;;;;;;;52.58;7.82;;;;;;;11.60;60.85;94844.22;5109022;28;20043;-73
2022/03/30 09:40:34;;;;;;;67.25;8.77;;;;;;;11.60;61.75;94840.72;5107149;28;20482;-75
2022/03/30 09:43:13;;;;;;;62.58;8.73;;;;;;;11.51;60.61;94843.66;5108421;28;20716;-74
2022/03/30 09:45:40;;;;;;;70.07;9.15;;;;;;;11.42;62.80;94835.69;5107795;28;20448;-74
2022/03/30 09:48:15;;;;;;;65.85;8.90;;;;;;;11.49;63.94;94829.59;5106787;28;20044;-74
2022/03/30 09:50:44;;;;;;;50.20;8.48;;;;;;;11.59;63.48;94828.22;5108428;28;20059;-73
2022/03/30 09:53:12;;;;;;;59.85;9.00;;;;;;;11.54;61.63;94826.59;5106766;28;20059;-74
2022/03/30 09:55:51;;;;;;;58.58;8.70;;;;;;;11.68;62.17;94821.38;5107033;28;20124;-74
2022/03/30 09:58:20;;;;;;;63.65;9.82;;;;;;;11.73;59.00;94817.56;5106562;28;20505;-74
2022/03/30 10:01:02;;;;;;;63.40;8.88;;;;;;;11.68;59.54;94817.88;5107894;28;20406;-76
2022/03/30 10:03:37;;;;;;;58.85;8.25;;;;;;;11.77;60.09;94812.97;5107460;28;20067;-75
2022/03/30 10:06:06;;;;;;;73.68;9.30;;;;;;;11.99;60.25;94814.16;5106670;28;20054;-75
2022/03/30 10:08:34;;;;;;;61.67;8.65;;;;;;;12.10;59.21;94809.66;5108082;28;20059;-75
2022/03/30 10:11:00;;;;;;;73.43;10.25;;;;;;;12.04;59.78;94810.34;5106720;28;20524;-75
2022/03/30 10:13:27;;;;;;;74.38;9.15;;;;;;;12.01;59.02;94800.94;5107906;28;20047;-74
2022/03/30 10:15:54;;;;;;;72.38;10.10;;;;;;;12.09;59.91;94802.63;5106883;28;20109;-74
2022/03/30 10:18:22;;;;;;;78.72;9.80;;;;;;;11.72;60.05;94799.63;5106694;28;20403;-74
2022/03/30 10:21:02;;;;;;;53.05;8.05;;;;;;;11.60;62.77;94792.41;5107199;28;20056;-75
2022/03/30 10:23:39;;;;;;;63.97;9.25;;;;;;;11.51;64.17;94791.84;5106886;28;20051;-74
2022/03/30 10:26:19;;;;;;;60.40;9.18;;;;;;;11.40;62.52;94790.88;5106966;28;20138;-74
2022/03/30 10:28:57;;;;;;;56.85;9.48;;;;;;;11.33;63.52;94785.28;5106543;28;20039;-74
2022/03/30 10:31:25;;;;;;;54.90;8.43;;;;;;;11.42;64.65;94783.91;5107155;28;20062;-74
2022/03/30 10:33:52;;;;;;;55.33;8.23;;;;;;;11.42;62.93;94780.41;5106649;28;20047;-74
2022/03/30 10:36:27;;;;;;;57.97;8.45;;;;;;;11.39;63.98;94781.13;5106391;28;20076;-75
2022/03/30 10:39:27;;;;;;;60.47;9.38;;;;;;;11.28;62.78;94774.69;5106670;28;20055;-74
2022/03/30 10:41:57;;;;;;;73.38;9.98;;;;;;;11.12;63.94;94778.28;5042938;28;20055;-74
2022/03/30 10:44:38;;;;;;;66.53;10.35;;;;;;;11.10;64.09;94780.56;5094688;28;20134;-74
2022/03/30 10:47:10;;;;;;;62.25;9.90;;;;;;;11.01;65.92;94785.44;5105843;28;20051;-74
2022/03/30 10:49:42;;;;;;;65.38;10.52;;;;;;;10.85;67.89;94785.50;5107366;28;20048;-74
2022/03/30 10:52:35;;;;;;;60.85;9.77;;;;;;;10.64;68.08;94780.41;5106452;28;20059;-74
2022/03/30 10:55:33;;;;;;;63.63;9.55;;;;;;;10.52;69.08;94768.88;5106374;28;20063;-74
2022/03/30 10:58:02;;;;;;;48.50;8.55;;;;;;;10.56;67.66;94767.81;5106845;28;20051;-76
2022/03/30 11:00:34;;;;;;;56.78;9.10;;;;;;;10.67;67.56;94768.03;5106317;28;20085;-74
2022/03/30 11:03:11;;;;;;;70.55;10.50;;;;;;;10.68;67.97;94762.22;5106541;28;20132;-74
2022/03/30 11:05:39;;;;;;;49.05;9.68;;;;;;;10.65;68.61;94765.66;5106458;28;20051;-74
2022/03/30 11:08:07;;;;;;;67.00;10.52;;;;;;;10.71;68.09;94761.53;5105461;28;20581;-75
2022/03/30 11:10:47;;;;;;;42.13;8.27;;;;;;;10.73;69.10;94757.66;5106679;28;20768;-74
2022/03/30 11:13:14;;;;;;;57.00;9.85;;;;;;;10.66;67.13;94753.63;5105405;28;20397;-74
2022/03/30 11:16:11;;;;;;;61.55;10.18;;;;;;;10.82;67.90;94753.56;5107005;28;20054;-74
2022/03/30 11:18:54;;;;;;;48.10;9.55;;;;;;;10.94;68.28;94755.34;5106384;28;20044;-74
2022/03/30 11:21:21;;;;;;;65.32;11.57;;;;;;;11.03;66.62;94752.41;5105647;28;20097;-75
2022/03/30 11:24:04;;;;;;;57.20;10.55;;;;;;;11.00;67.47;94742.22;5106976;28;20052;-74
2022/03/30 11:27:16;;;;;;;57.95;10.50;;;;;;;11.31;67.03;94746.72;5105382;28;20062;-76
2022/03/30 11:30:03;;;;;;;49.65;9.60;;;;;;;11.23;66.80;94741.13;5106486;28;20046;-74
2022/03/30 11:32:37;;;;;;;47.45;9.85;;;;;;;11.18;66.97;94732.47;5106498;28;20071;-75
2022/03/30 11:35:05;;;;;;;63.95;10.90;;;;;;;11.33;67.50;94736.22;5105660;28;20071;-74